sensor_id;sensor_type;location;lat;lon;timestamp;P1;durP1;ratioP1;P2;durP2;ratioP2
17372;SDS011;8803;48.116;11.590;2023-02-11T00:00:42;18.40;;;12.30;;
17372;SDS011;8803;48.116;11.590;2023-02-11T00:02:46;17.10;;;12.13;;
17372;SDS011;8803;48.116;11.590;2023-02-11T00:04:59;16.33;;;11.43;;
17372;SDS011;8803;48.116;11.590;2023-02-11T00:07:03;15.70;;;12.10;;
17372;SDS011;8803;48.116;11.590;2023-02-11T00:09:07;15.80;;;11.97;;
17372;SDS011;8803;48.116;11.590;2023-02-11T00:11:12;15.57;;;12.47;;
17372;SDS011;8803;48.116;11.590;2023-02-11T00:13:16;17.17;;;12.20;;
17372;SDS011;8803;48.116;11.590;2023-02-11T00:15:29;16.10;;;12.10;;
17372;SDS011;8803;48.116;11.590;2023-02-11T00:17:34;13.83;;;11.57;;
17372;SDS011;8803;48.116;11.590;2023-02-11T00:21:49;16.40;;;11.80;;
17372;SDS011;8803;48.116;11.590;2023-02-11T00:23:53;18.13;;;11.97;;
17372;SDS011;8803;48.116;11.590;2023-02-11T00:26:10;16.57;;;12.63;;
17372;SDS011;8803;48.116;11.590;2023-02-11T00:28:16;17.23;;;12.50;;
17372;SDS011;8803;48.116;11.590;2023-02-11T00:30:19;15.97;;;12.07;;
17372;SDS011;8803;48.116;11.590;2023-02-11T00:32:24;16.20;;;12.37;;
17372;SDS011;8803;48.116;11.590;2023-02-11T00:34:36;18.43;;;13.20;;
17372;SDS011;8803;48.116;11.590;2023-02-11T00:36:40;17.23;;;12.87;;
17372;SDS011;8803;48.116;11.590;2023-02-11T00:38:44;15.60;;;11.97;;
17372;SDS011;8803;48.116;11.590;2023-02-11T00:40:49;17.07;;;12.33;;
17372;SDS011;8803;48.116;11.590;2023-02-11T00:42:53;16.73;;;12.50;;
17372;SDS011;8803;48.116;11.590;2023-02-11T00:45:07;17.73;;;12.53;;
17372;SDS011;8803;48.116;11.590;2023-02-11T00:47:11;17.63;;;12.27;;
17372;SDS011;8803;48.116;11.590;2023-02-11T00:49:16;17.60;;;12.37;;
17372;SDS011;8803;48.116;11.590;2023-02-11T00:53:32;18.87;;;12.70;;
17372;SDS011;8803;48.116;11.590;2023-02-11T00:55:36;17.57;;;12.83;;
17372;SDS011;8803;48.116;11.590;2023-02-11T00:57:48;18.87;;;14.03;;
17372;SDS011;8803;48.116;11.590;2023-02-11T00:59:52;15.83;;;12.10;;
17372;SDS011;8803;48.116;11.590;2023-02-11T01:01:56;19.30;;;13.00;;
17372;SDS011;8803;48.116;11.590;2023-02-11T01:04:00;18.40;;;12.80;;
17372;SDS011;8803;48.116;11.590;2023-02-11T01:06:12;17.40;;;12.77;;
17372;SDS011;8803;48.116;11.590;2023-02-11T01:08:16;18.87;;;12.27;;
17372;SDS011;8803;48.116;11.590;2023-02-11T01:10:20;15.53;;;12.00;;
17372;SDS011;8803;48.116;11.590;2023-02-11T01:12:24;15.90;;;12.37;;
17372;SDS011;8803;48.116;11.590;2023-02-11T01:14:40;15.83;;;12.40;;
17372;SDS011;8803;48.116;11.590;2023-02-11T01:16:44;15.70;;;11.93;;
17372;SDS011;8803;48.116;11.590;2023-02-11T01:20:59;13.73;;;11.17;;
17372;SDS011;8803;48.116;11.590;2023-02-11T01:23:03;13.80;;;11.00;;
17372;SDS011;8803;48.116;11.590;2023-02-11T01:25:16;16.60;;;11.90;;
17372;SDS011;8803;48.116;11.590;2023-02-11T01:27:20;17.97;;;12.67;;
17372;SDS011;8803;48.116;11.590;2023-02-11T01:29:32;17.57;;;11.77;;
17372;SDS011;8803;48.116;11.590;2023-02-11T01:31:36;15.87;;;11.83;;
17372;SDS011;8803;48.116;11.590;2023-02-11T01:33:50;15.60;;;11.00;;
17372;SDS011;8803;48.116;11.590;2023-02-11T01:35:54;15.00;;;10.73;;
17372;SDS011;8803;48.116;11.590;2023-02-11T01:38:07;15.83;;;11.80;;
17372;SDS011;8803;48.116;11.590;2023-02-11T01:40:13;17.40;;;11.70;;
17372;SDS011;8803;48.116;11.590;2023-02-11T01:42:19;15.77;;;11.30;;
17372;SDS011;8803;48.116;11.590;2023-02-11T01:44:36;16.17;;;10.87;;
17372;SDS011;8803;48.116;11.590;2023-02-11T01:46:40;16.23;;;11.73;;
17372;SDS011;8803;48.116;11.590;2023-02-11T01:48:45;16.67;;;11.73;;
17372;SDS011;8803;48.116;11.590;2023-02-11T01:50:52;15.63;;;11.70;;
17372;SDS011;8803;48.116;11.590;2023-02-11T01:52:58;13.17;;;10.57;;
17372;SDS011;8803;48.116;11.590;2023-02-11T01:55:11;18.00;;;12.50;;
17372;SDS011;8803;48.116;11.590;2023-02-11T02:00:06;15.23;;;11.63;;
17372;SDS011;8803;48.116;11.590;2023-02-11T02:04:24;14.80;;;10.40;;
17372;SDS011;8803;48.116;11.590;2023-02-11T02:06:33;15.20;;;11.53;;
17372;SDS011;8803;48.116;11.590;2023-02-11T02:08:39;15.70;;;11.30;;
17372;SDS011;8803;48.116;11.590;2023-02-11T02:10:53;16.17;;;11.83;;
17372;SDS011;8803;48.116;11.590;2023-02-11T02:13:00;16.20;;;10.47;;
17372;SDS011;8803;48.116;11.590;2023-02-11T02:15:23;15.23;;;10.90;;
17372;SDS011;8803;48.116;11.590;2023-02-11T02:17:31;14.87;;;11.57;;
17372;SDS011;8803;48.116;11.590;2023-02-11T02:22:30;19.20;;;11.70;;
17372;SDS011;8803;48.116;11.590;2023-02-11T02:24:57;12.93;;;9.70;;
17372;SDS011;8803;48.116;11.590;2023-02-11T02:27:16;13.90;;;10.97;;
17372;SDS011;8803;48.116;11.590;2023-02-11T02:32:26;15.33;;;10.60;;
17372;SDS011;8803;48.116;11.590;2023-02-11T02:34:43;14.40;;;10.30;;
17372;SDS011;8803;48.116;11.590;2023-02-11T02:36:59;15.07;;;10.63;;
17372;SDS011;8803;48.116;11.590;2023-02-11T02:39:07;17.47;;;10.73;;
17372;SDS011;8803;48.116;11.590;2023-02-11T02:41:14;13.57;;;10.13;;
17372;SDS011;8803;48.116;11.590;2023-02-11T02:43:19;12.93;;;9.30;;
17372;SDS011;8803;48.116;11.590;2023-02-11T02:45:32;13.90;;;9.97;;
17372;SDS011;8803;48.116;11.590;2023-02-11T02:47:36;13.80;;;10.57;;
17372;SDS011;8803;48.116;11.590;2023-02-11T02:49:40;12.17;;;9.67;;
17372;SDS011;8803;48.116;11.590;2023-02-11T02:52:02;14.60;;;10.17;;
17372;SDS011;8803;48.116;11.590;2023-02-11T02:54:31;18.60;;;11.60;;
17372;SDS011;8803;48.116;11.590;2023-02-11T02:56:56;14.63;;;10.47;;
17372;SDS011;8803;48.116;11.590;2023-02-11T02:59:14;13.80;;;10.23;;
17372;SDS011;8803;48.116;11.590;2023-02-11T03:01:27;12.93;;;10.10;;
17372;SDS011;8803;48.116;11.590;2023-02-11T03:03:46;13.57;;;10.27;;
17372;SDS011;8803;48.116;11.590;2023-02-11T03:05:53;13.13;;;10.30;;
17372;SDS011;8803;48.116;11.590;2023-02-11T03:08:01;15.17;;;10.00;;
17372;SDS011;8803;48.116;11.590;2023-02-11T03:10:14;13.50;;;10.00;;
17372;SDS011;8803;48.116;11.590;2023-02-11T03:12:20;15.30;;;10.10;;
17372;SDS011;8803;48.116;11.590;2023-02-11T03:14:33;11.30;;;9.17;;
17372;SDS011;8803;48.116;11.590;2023-02-11T03:16:39;13.80;;;9.03;;
17372;SDS011;8803;48.116;11.590;2023-02-11T03:18:47;12.23;;;9.30;;
17372;SDS011;8803;48.116;11.590;2023-02-11T03:20:59;12.93;;;9.37;;
17372;SDS011;8803;48.116;11.590;2023-02-11T03:23:07;12.57;;;9.27;;
17372;SDS011;8803;48.116;11.590;2023-02-11T03:25:21;12.13;;;8.50;;
17372;SDS011;8803;48.116;11.590;2023-02-11T03:27:32;13.33;;;8.93;;
17372;SDS011;8803;48.116;11.590;2023-02-11T03:29:37;12.83;;;8.83;;
17372;SDS011;8803;48.116;11.590;2023-02-11T03:31:45;13.67;;;9.10;;
17372;SDS011;8803;48.116;11.590;2023-02-11T03:33:53;12.43;;;8.47;;
17372;SDS011;8803;48.116;11.590;2023-02-11T03:36:06;13.93;;;9.07;;
17372;SDS011;8803;48.116;11.590;2023-02-11T03:38:16;10.87;;;8.33;;
17372;SDS011;8803;48.116;11.590;2023-02-11T03:40:22;14.03;;;8.97;;
17372;SDS011;8803;48.116;11.590;2023-02-11T03:42:30;10.53;;;7.87;;
17372;SDS011;8803;48.116;11.590;2023-02-11T03:44:44;9.93;;;7.77;;
17372;SDS011;8803;48.116;11.590;2023-02-11T03:46:51;10.20;;;8.07;;
17372;SDS011;8803;48.116;11.590;2023-02-11T03:48:58;11.53;;;7.97;;
17372;SDS011;8803;48.116;11.590;2023-02-11T03:51:13;11.10;;;7.47;;
17372;SDS011;8803;48.116;11.590;2023-02-11T03:53:18;11.47;;;7.77;;
17372;SDS011;8803;48.116;11.590;2023-02-11T03:55:36;11.60;;;7.53;;
17372;SDS011;8803;48.116;11.590;2023-02-11T03:57:41;10.47;;;7.37;;
17372;SDS011;8803;48.116;11.590;2023-02-11T03:59:51;9.73;;;7.40;;
17372;SDS011;8803;48.116;11.590;2023-02-11T04:01:56;9.10;;;7.13;;
17372;SDS011;8803;48.116;11.590;2023-02-11T04:04:00;10.50;;;7.10;;
17372;SDS011;8803;48.116;11.590;2023-02-11T04:06:13;10.63;;;7.30;;
17372;SDS011;8803;48.116;11.590;2023-02-11T04:08:16;12.43;;;7.40;;
17372;SDS011;8803;48.116;11.590;2023-02-11T04:10:20;11.17;;;7.57;;
17372;SDS011;8803;48.116;11.590;2023-02-11T04:12:35;9.43;;;7.00;;
17372;SDS011;8803;48.116;11.590;2023-02-11T04:14:38;10.57;;;6.90;;
17372;SDS011;8803;48.116;11.590;2023-02-11T04:16:51;9.60;;;6.50;;
17372;SDS011;8803;48.116;11.590;2023-02-11T04:18:55;9.40;;;6.43;;
17372;SDS011;8803;48.116;11.590;2023-02-11T04:20:59;9.27;;;6.53;;
17372;SDS011;8803;48.116;11.590;2023-02-11T04:23:11;9.37;;;7.07;;
17372;SDS011;8803;48.116;11.590;2023-02-11T04:25:15;9.80;;;6.73;;
17372;SDS011;8803;48.116;11.590;2023-02-11T04:27:28;10.40;;;7.40;;
17372;SDS011;8803;48.116;11.590;2023-02-11T04:29:32;8.57;;;6.43;;
17372;SDS011;8803;48.116;11.590;2023-02-11T04:31:35;8.83;;;6.30;;
17372;SDS011;8803;48.116;11.590;2023-02-11T04:33:39;11.87;;;7.03;;
17372;SDS011;8803;48.116;11.590;2023-02-11T04:35:52;9.10;;;6.53;;
17372;SDS011;8803;48.116;11.590;2023-02-11T04:37:56;8.47;;;6.47;;
17372;SDS011;8803;48.116;11.590;2023-02-11T04:39:59;7.77;;;5.77;;
17372;SDS011;8803;48.116;11.590;2023-02-11T04:42:03;9.00;;;6.40;;
17372;SDS011;8803;48.116;11.590;2023-02-11T04:44:07;11.37;;;7.07;;
17372;SDS011;8803;48.116;11.590;2023-02-11T04:46:20;11.67;;;7.67;;
17372;SDS011;8803;48.116;11.590;2023-02-11T04:48:24;10.03;;;7.17;;
17372;SDS011;8803;48.116;11.590;2023-02-11T04:52:42;7.20;;;5.83;;
17372;SDS011;8803;48.116;11.590;2023-02-11T04:56:57;9.30;;;6.73;;
17372;SDS011;8803;48.116;11.590;2023-02-11T04:59:02;8.43;;;6.60;;
17372;SDS011;8803;48.116;11.590;2023-02-11T05:01:06;8.90;;;6.80;;
17372;SDS011;8803;48.116;11.590;2023-02-11T05:03:11;8.90;;;7.10;;
17372;SDS011;8803;48.116;11.590;2023-02-11T05:05:24;10.70;;;7.27;;
17372;SDS011;8803;48.116;11.590;2023-02-11T05:07:28;10.50;;;7.80;;
17372;SDS011;8803;48.116;11.590;2023-02-11T05:09:31;8.77;;;6.80;;
17372;SDS011;8803;48.116;11.590;2023-02-11T05:11:44;8.67;;;7.10;;
17372;SDS011;8803;48.116;11.590;2023-02-11T05:13:48;9.07;;;6.60;;
17372;SDS011;8803;48.116;11.590;2023-02-11T05:15:52;10.07;;;6.90;;
17372;SDS011;8803;48.116;11.590;2023-02-11T05:18:04;9.80;;;7.37;;
17372;SDS011;8803;48.116;11.590;2023-02-11T05:20:09;9.93;;;7.40;;
17372;SDS011;8803;48.116;11.590;2023-02-11T05:22:13;8.37;;;6.77;;
17372;SDS011;8803;48.116;11.590;2023-02-11T05:24:17;9.53;;;7.37;;
17372;SDS011;8803;48.116;11.590;2023-02-11T05:26:30;9.07;;;7.07;;
17372;SDS011;8803;48.116;11.590;2023-02-11T05:28:34;9.10;;;7.27;;
17372;SDS011;8803;48.116;11.590;2023-02-11T05:30:39;12.53;;;7.33;;
17372;SDS011;8803;48.116;11.590;2023-02-11T05:32:43;10.60;;;7.03;;
17372;SDS011;8803;48.116;11.590;2023-02-11T05:34:55;9.23;;;7.10;;
17372;SDS011;8803;48.116;11.590;2023-02-11T05:36:59;8.83;;;6.80;;
17372;SDS011;8803;48.116;11.590;2023-02-11T05:39:03;12.10;;;7.83;;
17372;SDS011;8803;48.116;11.590;2023-02-11T05:41:16;9.33;;;6.70;;
17372;SDS011;8803;48.116;11.590;2023-02-11T05:43:19;8.53;;;7.13;;
17372;SDS011;8803;48.116;11.590;2023-02-11T05:45:32;10.47;;;7.10;;
17372;SDS011;8803;48.116;11.590;2023-02-11T05:47:36;8.30;;;6.33;;
17372;SDS011;8803;48.116;11.590;2023-02-11T05:51:51;9.43;;;6.63;;
17372;SDS011;8803;48.116;11.590;2023-02-11T05:53:55;8.73;;;6.97;;
17372;SDS011;8803;48.116;11.590;2023-02-11T05:56:08;8.73;;;6.53;;
17372;SDS011;8803;48.116;11.590;2023-02-11T05:58:13;8.10;;;6.07;;
17372;SDS011;8803;48.116;11.590;2023-02-11T06:00:17;8.07;;;6.17;;
17372;SDS011;8803;48.116;11.590;2023-02-11T06:02:30;10.90;;;6.90;;
17372;SDS011;8803;48.116;11.590;2023-02-11T06:04:34;7.50;;;6.70;;
17372;SDS011;8803;48.116;11.590;2023-02-11T06:06:49;10.27;;;6.77;;
17372;SDS011;8803;48.116;11.590;2023-02-11T06:08:53;8.47;;;6.33;;
17372;SDS011;8803;48.116;11.590;2023-02-11T06:10:57;7.83;;;6.13;;
17372;SDS011;8803;48.116;11.590;2023-02-11T06:13:10;8.80;;;6.90;;
17372;SDS011;8803;48.116;11.590;2023-02-11T06:15:13;8.37;;;5.97;;
17372;SDS011;8803;48.116;11.590;2023-02-11T06:17:26;7.13;;;5.70;;
17372;SDS011;8803;48.116;11.590;2023-02-11T06:21:43;7.53;;;5.80;;
17372;SDS011;8803;48.116;11.590;2023-02-11T06:23:46;7.37;;;5.60;;
17372;SDS011;8803;48.116;11.590;2023-02-11T06:26:00;7.07;;;5.73;;
17372;SDS011;8803;48.116;11.590;2023-02-11T06:28:05;9.07;;;5.70;;
17372;SDS011;8803;48.116;11.590;2023-02-11T06:30:11;7.63;;;6.10;;
17372;SDS011;8803;48.116;11.590;2023-02-11T06:32:26;8.20;;;5.50;;
17372;SDS011;8803;48.116;11.590;2023-02-11T06:34:30;8.10;;;6.17;;
17372;SDS011;8803;48.116;11.590;2023-02-11T06:36:52;9.13;;;5.73;;
17372;SDS011;8803;48.116;11.590;2023-02-11T06:38:56;7.80;;;5.70;;
17372;SDS011;8803;48.116;11.590;2023-02-11T06:41:00;8.03;;;6.03;;
17372;SDS011;8803;48.116;11.590;2023-02-11T06:43:13;7.03;;;5.87;;
17372;SDS011;8803;48.116;11.590;2023-02-11T06:45:16;6.80;;;5.37;;
17372;SDS011;8803;48.116;11.590;2023-02-11T06:47:32;8.60;;;5.77;;
17372;SDS011;8803;48.116;11.590;2023-02-11T06:49:36;8.33;;;5.73;;
17372;SDS011;8803;48.116;11.590;2023-02-11T06:53:51;7.57;;;5.87;;
17372;SDS011;8803;48.116;11.590;2023-02-11T06:55:55;8.07;;;6.63;;
17372;SDS011;8803;48.116;11.590;2023-02-11T06:58:13;8.27;;;5.83;;
17372;SDS011;8803;48.116;11.590;2023-02-11T07:00:17;9.27;;;6.30;;
17372;SDS011;8803;48.116;11.590;2023-02-11T07:02:21;7.10;;;5.63;;
17372;SDS011;8803;48.116;11.590;2023-02-11T07:04:34;7.47;;;5.17;;
17372;SDS011;8803;48.116;11.590;2023-02-11T07:06:38;6.93;;;5.43;;
17372;SDS011;8803;48.116;11.590;2023-02-11T07:08:42;6.60;;;5.07;;
17372;SDS011;8803;48.116;11.590;2023-02-11T07:10:46;8.33;;;5.53;;
17372;SDS011;8803;48.116;11.590;2023-02-11T07:12:49;5.90;;;5.00;;
17372;SDS011;8803;48.116;11.590;2023-02-11T07:15:04;7.30;;;5.50;;
17372;SDS011;8803;48.116;11.590;2023-02-11T07:17:09;6.37;;;5.10;;
17372;SDS011;8803;48.116;11.590;2023-02-11T07:19:13;6.57;;;5.30;;
17372;SDS011;8803;48.116;11.590;2023-02-11T07:21:25;7.43;;;5.93;;
17372;SDS011;8803;48.116;11.590;2023-02-11T07:23:29;7.97;;;5.43;;
17372;SDS011;8803;48.116;11.590;2023-02-11T07:25:33;7.07;;;5.53;;
17372;SDS011;8803;48.116;11.590;2023-02-11T07:27:46;7.33;;;5.50;;
17372;SDS011;8803;48.116;11.590;2023-02-11T07:29:51;8.83;;;5.87;;
17372;SDS011;8803;48.116;11.590;2023-02-11T07:31:54;6.40;;;5.10;;
17372;SDS011;8803;48.116;11.590;2023-02-11T07:33:59;7.57;;;5.57;;
17372;SDS011;8803;48.116;11.590;2023-02-11T07:36:12;8.83;;;6.33;;
17372;SDS011;8803;48.116;11.590;2023-02-11T07:38:17;8.07;;;6.13;;
17372;SDS011;8803;48.116;11.590;2023-02-11T07:40:21;8.87;;;6.13;;
17372;SDS011;8803;48.116;11.590;2023-02-11T07:44:39;6.70;;;5.03;;
17372;SDS011;8803;48.116;11.590;2023-02-11T07:46:43;6.93;;;5.33;;
17372;SDS011;8803;48.116;11.590;2023-02-11T07:48:49;6.23;;;5.17;;
17372;SDS011;8803;48.116;11.590;2023-02-11T07:51:05;6.50;;;5.57;;
17372;SDS011;8803;48.116;11.590;2023-02-11T07:53:10;5.93;;;4.90;;
17372;SDS011;8803;48.116;11.590;2023-02-11T07:57:25;8.30;;;5.50;;
17372;SDS011;8803;48.116;11.590;2023-02-11T07:59:29;6.03;;;4.73;;
17372;SDS011;8803;48.116;11.590;2023-02-11T08:01:42;6.40;;;5.50;;
17372;SDS011;8803;48.116;11.590;2023-02-11T08:03:46;7.87;;;5.63;;
17372;SDS011;8803;48.116;11.590;2023-02-11T08:06:02;7.37;;;5.23;;
17372;SDS011;8803;48.116;11.590;2023-02-11T08:08:15;7.93;;;5.97;;
17372;SDS011;8803;48.116;11.590;2023-02-11T08:10:18;7.67;;;5.83;;
17372;SDS011;8803;48.116;11.590;2023-02-11T08:12:22;7.43;;;5.90;;
17372;SDS011;8803;48.116;11.590;2023-02-11T08:14:26;9.73;;;6.57;;
17372;SDS011;8803;48.116;11.590;2023-02-11T08:16:39;10.77;;;6.77;;
17372;SDS011;8803;48.116;11.590;2023-02-11T08:18:43;9.03;;;6.33;;
17372;SDS011;8803;48.116;11.590;2023-02-11T08:22:59;8.93;;;5.97;;
17372;SDS011;8803;48.116;11.590;2023-02-11T08:25:03;8.53;;;6.23;;
17372;SDS011;8803;48.116;11.590;2023-02-11T08:27:17;8.03;;;5.63;;
17372;SDS011;8803;48.116;11.590;2023-02-11T08:29:20;6.97;;;5.20;;
17372;SDS011;8803;48.116;11.590;2023-02-11T08:31:25;7.83;;;5.70;;
17372;SDS011;8803;48.116;11.590;2023-02-11T08:35:42;7.87;;;6.03;;
17372;SDS011;8803;48.116;11.590;2023-02-11T08:37:46;9.83;;;6.33;;
17372;SDS011;8803;48.116;11.590;2023-02-11T08:39:59;8.27;;;6.30;;
17372;SDS011;8803;48.116;11.590;2023-02-11T08:42:03;8.07;;;6.13;;
17372;SDS011;8803;48.116;11.590;2023-02-11T08:44:06;8.20;;;6.43;;
17372;SDS011;8803;48.116;11.590;2023-02-11T08:46:19;8.03;;;6.17;;
17372;SDS011;8803;48.116;11.590;2023-02-11T08:48:23;8.50;;;6.50;;
17372;SDS011;8803;48.116;11.590;2023-02-11T08:50:28;9.40;;;6.30;;
17372;SDS011;8803;48.116;11.590;2023-02-11T08:54:46;9.70;;;6.17;;
17372;SDS011;8803;48.116;11.590;2023-02-11T08:56:51;8.17;;;6.20;;
17372;SDS011;8803;48.116;11.590;2023-02-11T08:58:55;7.40;;;5.67;;
17372;SDS011;8803;48.116;11.590;2023-02-11T09:00:58;7.97;;;5.87;;
17372;SDS011;8803;48.116;11.590;2023-02-11T09:03:11;7.27;;;5.73;;
17372;SDS011;8803;48.116;11.590;2023-02-11T09:07:27;6.97;;;6.00;;
17372;SDS011;8803;48.116;11.590;2023-02-11T09:09:31;7.60;;;6.30;;
17372;SDS011;8803;48.116;11.590;2023-02-11T09:11:43;9.87;;;6.60;;
17372;SDS011;8803;48.116;11.590;2023-02-11T09:13:48;8.87;;;6.60;;
17372;SDS011;8803;48.116;11.590;2023-02-11T09:15:52;9.77;;;6.87;;
17372;SDS011;8803;48.116;11.590;2023-02-11T09:17:56;8.63;;;6.37;;
17372;SDS011;8803;48.116;11.590;2023-02-11T09:20:10;8.70;;;6.17;;
17372;SDS011;8803;48.116;11.590;2023-02-11T09:22:14;10.13;;;7.03;;
17372;SDS011;8803;48.116;11.590;2023-02-11T09:24:18;11.10;;;7.20;;
17372;SDS011;8803;48.116;11.590;2023-02-11T09:26:31;9.03;;;6.50;;
17372;SDS011;8803;48.116;11.590;2023-02-11T09:28:36;10.50;;;7.10;;
17372;SDS011;8803;48.116;11.590;2023-02-11T09:30:40;12.67;;;7.20;;
17372;SDS011;8803;48.116;11.590;2023-02-11T09:34:55;12.70;;;7.50;;
17372;SDS011;8803;48.116;11.590;2023-02-11T09:36:59;10.40;;;7.10;;
17372;SDS011;8803;48.116;11.590;2023-02-11T09:39:12;10.23;;;7.23;;
17372;SDS011;8803;48.116;11.590;2023-02-11T09:41:24;8.03;;;6.30;;
17372;SDS011;8803;48.116;11.590;2023-02-11T09:43:35;8.77;;;7.00;;
17372;SDS011;8803;48.116;11.590;2023-02-11T09:45:48;11.70;;;7.43;;
17372;SDS011;8803;48.116;11.590;2023-02-11T09:47:54;8.53;;;6.27;;
17372;SDS011;8803;48.116;11.590;2023-02-11T09:50:01;10.47;;;6.67;;
17372;SDS011;8803;48.116;11.590;2023-02-11T09:52:10;9.53;;;7.33;;
17372;SDS011;8803;48.116;11.590;2023-02-11T09:54:24;8.10;;;6.40;;
17372;SDS011;8803;48.116;11.590;2023-02-11T09:56:30;8.37;;;6.00;;
17372;SDS011;8803;48.116;11.590;2023-02-11T09:58:43;7.87;;;6.30;;
17372;SDS011;8803;48.116;11.590;2023-02-11T10:00:49;9.73;;;6.57;;
17372;SDS011;8803;48.116;11.590;2023-02-11T10:03:11;7.27;;;6.13;;
17372;SDS011;8803;48.116;11.590;2023-02-11T10:05:37;8.23;;;5.90;;
17372;SDS011;8803;48.116;11.590;2023-02-11T10:08:01;8.27;;;6.97;;
17372;SDS011;8803;48.116;11.590;2023-02-11T10:10:12;10.83;;;6.93;;
17372;SDS011;8803;48.116;11.590;2023-02-11T10:12:30;9.27;;;6.80;;
17372;SDS011;8803;48.116;11.590;2023-02-11T10:14:46;10.37;;;7.10;;
17372;SDS011;8803;48.116;11.590;2023-02-11T10:17:07;10.33;;;7.50;;
17372;SDS011;8803;48.116;11.590;2023-02-11T10:19:18;10.37;;;7.40;;
17372;SDS011;8803;48.116;11.590;2023-02-11T10:21:34;9.13;;;6.80;;
17372;SDS011;8803;48.116;11.590;2023-02-11T10:23:43;11.23;;;6.60;;
17372;SDS011;8803;48.116;11.590;2023-02-11T10:25:56;10.03;;;7.13;;
17372;SDS011;8803;48.116;11.590;2023-02-11T10:28:01;8.03;;;6.53;;
17372;SDS011;8803;48.116;11.590;2023-02-11T10:30:22;10.13;;;7.40;;
17372;SDS011;8803;48.116;11.590;2023-02-11T10:32:31;8.07;;;6.27;;
17372;SDS011;8803;48.116;11.590;2023-02-11T10:34:45;8.83;;;7.43;;
17372;SDS011;8803;48.116;11.590;2023-02-11T10:36:49;25.33;;;13.47;;
17372;SDS011;8803;48.116;11.590;2023-02-11T10:39:01;28.20;;;14.90;;
17372;SDS011;8803;48.116;11.590;2023-02-11T10:41:15;25.07;;;14.13;;
17372;SDS011;8803;48.116;11.590;2023-02-11T10:43:27;13.17;;;8.43;;
17372;SDS011;8803;48.116;11.590;2023-02-11T10:45:32;11.77;;;8.40;;
17372;SDS011;8803;48.116;11.590;2023-02-11T10:47:46;9.57;;;7.57;;
17372;SDS011;8803;48.116;11.590;2023-02-11T10:49:50;9.27;;;7.43;;
17372;SDS011;8803;48.116;11.590;2023-02-11T10:51:57;8.73;;;7.20;;
17372;SDS011;8803;48.116;11.590;2023-02-11T10:54:23;10.43;;;7.97;;
17372;SDS011;8803;48.116;11.590;2023-02-11T10:56:26;13.17;;;9.47;;
17372;SDS011;8803;48.116;11.590;2023-02-11T10:58:40;10.77;;;8.43;;
17372;SDS011;8803;48.116;11.590;2023-02-11T11:00:48;10.43;;;8.33;;
17372;SDS011;8803;48.116;11.590;2023-02-11T11:03:01;11.90;;;8.23;;
17372;SDS011;8803;48.116;11.590;2023-02-11T11:05:14;11.60;;;8.33;;
17372;SDS011;8803;48.116;11.590;2023-02-11T11:07:27;12.23;;;8.27;;
17372;SDS011;8803;48.116;11.590;2023-02-11T11:09:41;11.67;;;8.27;;
17372;SDS011;8803;48.116;11.590;2023-02-11T11:11:49;12.17;;;9.30;;
17372;SDS011;8803;48.116;11.590;2023-02-11T11:13:54;8.77;;;7.47;;
17372;SDS011;8803;48.116;11.590;2023-02-11T11:16:08;13.80;;;8.83;;
17372;SDS011;8803;48.116;11.590;2023-02-11T11:18:20;14.33;;;8.77;;
17372;SDS011;8803;48.116;11.590;2023-02-11T11:20:34;12.07;;;8.60;;
17372;SDS011;8803;48.116;11.590;2023-02-11T11:22:38;11.63;;;8.57;;
17372;SDS011;8803;48.116;11.590;2023-02-11T11:24:51;12.30;;;8.30;;
17372;SDS011;8803;48.116;11.590;2023-02-11T11:26:58;11.87;;;8.80;;
17372;SDS011;8803;48.116;11.590;2023-02-11T11:29:06;10.67;;;8.20;;
17372;SDS011;8803;48.116;11.590;2023-02-11T11:31:13;11.47;;;8.40;;
17372;SDS011;8803;48.116;11.590;2023-02-11T11:33:20;11.27;;;8.03;;
17372;SDS011;8803;48.116;11.590;2023-02-11T11:35:33;10.53;;;7.90;;
17372;SDS011;8803;48.116;11.590;2023-02-11T11:37:37;11.17;;;8.10;;
17372;SDS011;8803;48.116;11.590;2023-02-11T11:39:41;11.77;;;8.53;;
17372;SDS011;8803;48.116;11.590;2023-02-11T11:41:54;11.87;;;8.37;;
17372;SDS011;8803;48.116;11.590;2023-02-11T11:44:01;10.13;;;7.70;;
17372;SDS011;8803;48.116;11.590;2023-02-11T11:46:25;10.33;;;7.57;;
17372;SDS011;8803;48.116;11.590;2023-02-11T11:48:22;11.53;;;7.80;;
17372;SDS011;8803;48.116;11.590;2023-02-11T11:50:31;12.83;;;8.40;;
17372;SDS011;8803;48.116;11.590;2023-02-11T11:52:40;10.63;;;8.27;;
17372;SDS011;8803;48.116;11.590;2023-02-11T11:54:57;10.27;;;7.67;;
17372;SDS011;8803;48.116;11.590;2023-02-11T11:57:02;11.80;;;7.97;;
17372;SDS011;8803;48.116;11.590;2023-02-11T11:59:10;12.33;;;7.60;;
17372;SDS011;8803;48.116;11.590;2023-02-11T12:01:20;13.30;;;8.17;;
17372;SDS011;8803;48.116;11.590;2023-02-11T12:03:55;13.73;;;8.70;;
17372;SDS011;8803;48.116;11.590;2023-02-11T12:08:23;9.03;;;7.17;;
17372;SDS011;8803;48.116;11.590;2023-02-11T12:10:36;12.43;;;8.33;;
17372;SDS011;8803;48.116;11.590;2023-02-11T12:12:44;11.73;;;8.30;;
17372;SDS011;8803;48.116;11.590;2023-02-11T12:14:52;13.03;;;8.00;;
17372;SDS011;8803;48.116;11.590;2023-02-11T12:17:00;10.57;;;7.53;;
17372;SDS011;8803;48.116;11.590;2023-02-11T12:19:13;13.30;;;7.47;;
17372;SDS011;8803;48.116;11.590;2023-02-11T12:21:25;9.20;;;7.17;;
17372;SDS011;8803;48.116;11.590;2023-02-11T12:23:45;9.57;;;7.50;;
17372;SDS011;8803;48.116;11.590;2023-02-11T12:25:54;11.30;;;7.77;;
17372;SDS011;8803;48.116;11.590;2023-02-11T12:28:12;10.80;;;7.97;;
17372;SDS011;8803;48.116;11.590;2023-02-11T12:30:31;11.93;;;7.73;;
17372;SDS011;8803;48.116;11.590;2023-02-11T12:32:57;10.57;;;7.90;;
17372;SDS011;8803;48.116;11.590;2023-02-11T12:35:20;11.10;;;7.53;;
17372;SDS011;8803;48.116;11.590;2023-02-11T12:37:33;10.63;;;7.77;;
17372;SDS011;8803;48.116;11.590;2023-02-11T12:39:50;10.40;;;6.70;;
17372;SDS011;8803;48.116;11.590;2023-02-11T12:42:04;10.77;;;7.47;;
17372;SDS011;8803;48.116;11.590;2023-02-11T12:46:43;10.63;;;7.60;;
17372;SDS011;8803;48.116;11.590;2023-02-11T12:51:44;12.80;;;7.50;;
17372;SDS011;8803;48.116;11.590;2023-02-11T12:54:06;10.00;;;7.50;;
17372;SDS011;8803;48.116;11.590;2023-02-11T12:56:24;9.60;;;7.17;;
17372;SDS011;8803;48.116;11.590;2023-02-11T12:58:30;9.40;;;7.33;;
17372;SDS011;8803;48.116;11.590;2023-02-11T13:00:45;9.47;;;7.33;;
17372;SDS011;8803;48.116;11.590;2023-02-11T13:02:53;9.97;;;7.47;;
17372;SDS011;8803;48.116;11.590;2023-02-11T13:05:09;8.73;;;6.70;;
17372;SDS011;8803;48.116;11.590;2023-02-11T13:07:18;9.87;;;7.10;;
17372;SDS011;8803;48.116;11.590;2023-02-11T13:09:33;9.60;;;7.40;;
17372;SDS011;8803;48.116;11.590;2023-02-11T13:11:40;10.10;;;7.23;;
17372;SDS011;8803;48.116;11.590;2023-02-11T13:13:54;10.07;;;7.60;;
17372;SDS011;8803;48.116;11.590;2023-02-11T13:16:00;9.50;;;7.17;;
17372;SDS011;8803;48.116;11.590;2023-02-11T13:18:21;10.43;;;7.33;;
17372;SDS011;8803;48.116;11.590;2023-02-11T13:20:33;10.30;;;7.20;;
17372;SDS011;8803;48.116;11.590;2023-02-11T13:24:52;10.13;;;7.30;;
17372;SDS011;8803;48.116;11.590;2023-02-11T13:26:59;9.17;;;7.27;;
17372;SDS011;8803;48.116;11.590;2023-02-11T13:29:12;10.57;;;7.90;;
17372;SDS011;8803;48.116;11.590;2023-02-11T13:31:20;9.97;;;7.60;;
17372;SDS011;8803;48.116;11.590;2023-02-11T13:33:35;12.43;;;8.07;;
17372;SDS011;8803;48.116;11.590;2023-02-11T13:36:09;12.80;;;8.07;;
17372;SDS011;8803;48.116;11.590;2023-02-11T13:38:17;11.07;;;7.93;;
17372;SDS011;8803;48.116;11.590;2023-02-11T13:40:23;11.17;;;8.07;;
17372;SDS011;8803;48.116;11.590;2023-02-11T13:42:29;13.83;;;8.53;;